createdAt,value
2018-09-29T00:02:04.884Z,54.50
2018-09-29T00:04:33.520Z,54.50
2018-09-29T00:07:02.181Z,54.50
2018-09-29T00:09:30.831Z,54.60
2018-09-29T00:11:59.504Z,54.60
2018-09-29T00:14:28.136Z,54.60
2018-09-29T00:16:56.801Z,54.60
2018-09-29T00:19:25.493Z,54.60
2018-09-29T00:21:54.161Z,54.60
2018-09-29T00:24:22.814Z,54.60
2018-09-29T00:26:52.404Z,54.60
2018-09-29T00:29:21.049Z,54.60
2018-09-29T00:31:49.700Z,54.70
2018-09-29T00:34:18.346Z,54.60
2018-09-29T00:36:46.977Z,54.70
2018-09-29T00:39:15.608Z,54.70
2018-09-29T00:41:44.260Z,54.70
2018-09-29T00:44:12.896Z,54.70
2018-09-29T00:46:41.548Z,54.70
2018-09-29T00:49:10.460Z,54.70
2018-09-29T00:51:39.089Z,54.70
2018-09-29T00:54:07.788Z,54.80
2018-09-29T00:56:36.454Z,54.80
2018-09-29T00:59:05.091Z,54.90
2018-09-29T01:01:33.729Z,54.80
2018-09-29T01:04:02.430Z,54.90
2018-09-29T01:06:31.088Z,54.90
2018-09-29T01:08:59.778Z,54.90
2018-09-29T01:11:28.437Z,54.90
2018-09-29T01:13:57.076Z,55.00
2018-09-29T01:16:25.719Z,55.10
2018-09-29T01:18:54.348Z,55.10
2018-09-29T01:21:23.043Z,55.10
2018-09-29T01:23:51.697Z,55.10
2018-09-29T01:26:20.352Z,55.00
2018-09-29T01:28:48.985Z,55.10
2018-09-29T01:31:17.636Z,55.10
2018-09-29T01:33:46.271Z,55.10
2018-09-29T01:36:15.176Z,55.10
2018-09-29T01:38:43.836Z,55.20
2018-09-29T01:41:12.536Z,55.20
2018-09-29T01:43:41.296Z,55.20
2018-09-29T01:46:09.929Z,55.30
2018-09-29T01:48:38.563Z,55.30
2018-09-29T01:51:07.231Z,55.30
2018-09-29T01:53:35.877Z,55.40
2018-09-29T01:56:04.516Z,55.30
2018-09-29T01:58:33.165Z,55.30
2018-09-29T02:01:01.819Z,55.30
2018-09-29T02:03:30.488Z,55.40
2018-09-29T02:05:59.132Z,55.30
2018-09-29T02:08:27.781Z,55.40
2018-09-29T02:10:56.604Z,55.40
2018-09-29T02:13:25.240Z,55.40
2018-09-29T02:15:53.899Z,55.50
2018-09-29T02:18:22.560Z,55.50
2018-09-29T02:20:51.214Z,55.50
2018-09-29T02:23:19.851Z,55.50
2018-09-29T02:25:48.558Z,55.60
2018-09-29T02:28:17.220Z,55.60
2018-09-29T02:30:45.857Z,55.60
2018-09-29T02:33:14.513Z,55.60
2018-09-29T02:35:43.152Z,55.60
2018-09-29T02:38:11.787Z,55.60
2018-09-29T02:40:40.452Z,55.70
2018-09-29T02:43:09.104Z,55.60
2018-09-29T02:45:37.787Z,55.60
2018-09-29T02:48:06.888Z,55.70
2018-09-29T02:50:35.765Z,55.70
2018-09-29T02:53:04.404Z,55.70
2018-09-29T02:55:33.089Z,55.70
2018-09-29T02:58:01.740Z,55.70
2018-09-29T03:00:30.524Z,55.80
2018-09-29T03:02:59.193Z,55.80
2018-09-29T03:05:27.828Z,55.80
2018-09-29T03:07:56.480Z,55.80
2018-09-29T03:10:25.161Z,55.80
2018-09-29T03:12:53.822Z,55.70
2018-09-29T03:15:22.469Z,55.80
2018-09-29T03:17:51.380Z,55.90
2018-09-29T03:20:20.039Z,55.90
2018-09-29T03:22:48.692Z,55.90
2018-09-29T03:25:17.371Z,55.90
2018-09-29T03:27:46.022Z,56.00
2018-09-29T03:30:14.670Z,56.00
2018-09-29T03:32:43.323Z,55.90
2018-09-29T03:35:11.986Z,56.50
2018-09-29T03:37:40.641Z,55.90
2018-09-29T03:40:09.280Z,55.90
2018-09-29T03:42:37.914Z,55.90
2018-09-29T03:45:06.815Z,56.00
2018-09-29T03:47:35.469Z,56.00
2018-09-29T03:50:04.130Z,55.90
2018-09-29T03:52:32.813Z,56.00
2018-09-29T03:55:01.464Z,55.90
2018-09-29T03:57:30.120Z,55.90
2018-09-29T03:59:58.747Z,56.00
2018-09-29T04:02:27.407Z,56.00
2018-09-29T04:04:56.064Z,56.00
2018-09-29T04:07:24.750Z,56.00
2018-09-29T04:09:53.418Z,56.00
2018-09-29T04:12:22.061Z,55.90
2018-09-29T04:14:50.714Z,56.00
2018-09-29T04:17:19.360Z,56.00
2018-09-29T04:19:47.983Z,56.00
2018-09-29T04:22:16.620Z,55.90
2018-09-29T04:24:45.280Z,56.00
2018-09-29T04:27:13.937Z,56.00
2018-09-29T04:29:42.580Z,56.00
2018-09-29T04:32:11.224Z,56.10
2018-09-29T04:34:39.909Z,56.00
2018-09-29T04:37:08.563Z,56.00
2018-09-29T04:39:37.204Z,56.00
2018-09-29T04:42:05.853Z,56.00
2018-09-29T04:44:34.520Z,56.00
2018-09-29T04:47:03.170Z,56.00
2018-09-29T04:49:31.820Z,56.00
2018-09-29T04:52:00.465Z,56.00
2018-09-29T04:54:29.109Z,56.00
2018-09-29T04:56:57.783Z,56.00
2018-09-29T04:59:26.440Z,56.00
2018-09-29T05:01:55.072Z,56.10
2018-09-29T05:04:23.739Z,56.20
2018-09-29T05:06:52.411Z,56.10
2018-09-29T05:09:21.073Z,56.20
2018-09-29T05:11:49.711Z,56.10
2018-09-29T05:14:18.388Z,56.10
2018-09-29T05:16:47.045Z,56.10
2018-09-29T05:19:15.692Z,56.10
2018-09-29T05:21:44.348Z,56.10
2018-09-29T05:24:13.047Z,56.00
2018-09-29T05:26:41.708Z,55.90
2018-09-29T05:29:10.391Z,55.90
2018-09-29T05:31:39.057Z,55.80
2018-09-29T05:34:07.716Z,55.80
2018-09-29T05:36:36.360Z,55.70
2018-09-29T05:39:06.220Z,55.70
2018-09-29T05:41:34.892Z,55.70
2018-09-29T05:44:03.720Z,55.70
2018-09-29T05:46:32.368Z,55.60
2018-09-29T05:49:01.098Z,55.60
2018-09-29T05:51:29.940Z,55.60
2018-09-29T05:53:58.673Z,55.60
2018-09-29T05:56:27.528Z,55.60
2018-09-29T05:58:56.180Z,55.60
2018-09-29T06:01:24.814Z,55.60
2018-09-29T06:03:53.457Z,55.70
2018-09-29T06:06:22.100Z,55.60
2018-09-29T06:08:50.736Z,55.60
2018-09-29T06:11:19.384Z,55.60
2018-09-29T06:13:48.029Z,55.60
2018-09-29T06:16:16.726Z,55.60
2018-09-29T06:18:45.396Z,55.50
2018-09-29T06:21:14.040Z,55.50
2018-09-29T06:23:42.697Z,55.50
2018-09-29T06:26:11.358Z,55.40
2018-09-29T06:28:40.004Z,55.40
2018-09-29T06:31:08.748Z,55.30
2018-09-29T06:33:37.888Z,55.40
2018-09-29T06:36:06.857Z,55.30
2018-09-29T06:38:36.108Z,55.30
2018-09-29T06:41:05.154Z,55.30
2018-09-29T06:43:33.833Z,55.40
2018-09-29T06:46:02.477Z,55.40
2018-09-29T06:48:31.149Z,55.40
2018-09-29T06:50:59.816Z,55.30
2018-09-29T06:53:28.539Z,55.20
2018-09-29T06:55:57.222Z,55.00
2018-09-29T06:58:25.886Z,55.30
2018-09-29T07:00:54.585Z,54.50
2018-09-29T07:03:23.261Z,54.40
2018-09-29T07:05:51.908Z,54.20
2018-09-29T07:08:20.580Z,53.90
2018-09-29T07:10:49.224Z,53.70
2018-09-29T07:13:17.877Z,53.70
2018-09-29T07:15:46.525Z,53.60
2018-09-29T07:18:15.173Z,53.40
2018-09-29T07:20:43.865Z,53.30
2018-09-29T07:23:12.499Z,53.10
2018-09-29T07:25:41.138Z,52.80
2018-09-29T07:28:09.784Z,52.70
2018-09-29T07:30:38.417Z,52.90
2018-09-29T07:33:07.435Z,52.90
2018-09-29T07:35:36.125Z,52.40
2018-09-29T07:38:04.803Z,52.10
2018-09-29T07:40:33.480Z,51.80
2018-09-29T07:43:02.128Z,51.30
2018-09-29T07:45:30.779Z,50.80
2018-09-29T07:47:59.432Z,50.40
2018-09-29T07:50:28.068Z,50.00
2018-09-29T07:52:56.733Z,49.70
2018-09-29T07:55:25.392Z,49.80
2018-09-29T07:57:54.046Z,49.60
2018-09-29T08:00:22.700Z,49.40
2018-09-29T08:02:51.345Z,49.20
2018-09-29T08:05:19.980Z,49.00
2018-09-29T08:07:48.609Z,49.30
2018-09-29T08:10:17.268Z,49.60
2018-09-29T08:12:45.904Z,49.30
2018-09-29T08:15:14.603Z,49.30
2018-09-29T08:17:43.277Z,49.10
2018-09-29T08:20:11.989Z,48.80
2018-09-29T08:22:41.145Z,48.70
2018-09-29T08:25:09.800Z,48.60
2018-09-29T08:27:38.437Z,48.60
2018-09-29T08:30:07.252Z,48.40
2018-09-29T08:32:36.173Z,48.30
2018-09-29T08:35:04.829Z,48.40
2018-09-29T08:37:33.476Z,48.70
2018-09-29T08:40:02.120Z,48.90
2018-09-29T08:42:30.769Z,48.90
2018-09-29T08:44:59.429Z,49.10
2018-09-29T08:47:28.096Z,49.10
2018-09-29T08:49:56.750Z,49.10
2018-09-29T08:52:25.384Z,49.20
2018-09-29T08:54:54.049Z,49.20
2018-09-29T08:57:22.706Z,49.10
2018-09-29T09:00:22.048Z,48.90
2018-09-29T09:02:50.865Z,48.90
2018-09-29T09:05:19.536Z,48.80
2018-09-29T09:07:48.169Z,49.00
2018-09-29T09:10:16.837Z,49.10
2018-09-29T09:12:45.485Z,49.40
2018-09-29T09:15:14.164Z,49.70
2018-09-29T09:17:42.826Z,49.90
2018-09-29T09:20:11.491Z,50.00
2018-09-29T09:22:40.548Z,50.30
2018-09-29T09:25:09.198Z,50.30
2018-09-29T09:27:37.880Z,50.50
2018-09-29T09:30:06.609Z,50.40
2018-09-29T09:32:35.206Z,50.40
2018-09-29T09:35:03.882Z,50.50
2018-09-29T09:37:32.528Z,50.40
2018-09-29T09:40:01.163Z,50.50
2018-09-29T09:42:29.812Z,50.20
2018-09-29T09:44:58.449Z,50.10
2018-09-29T09:47:27.157Z,50.00
2018-09-29T09:49:55.848Z,50.10
2018-09-29T09:52:24.484Z,50.10
2018-09-29T09:54:53.124Z,50.00
2018-09-29T09:57:21.901Z,49.70
2018-09-29T09:59:50.544Z,49.60
2018-09-29T10:02:24.488Z,49.50
2018-09-29T10:04:53.132Z,49.40
2018-09-29T10:07:21.788Z,49.50
2018-09-29T10:09:50.422Z,49.60
2018-09-29T10:12:19.061Z,49.70
2018-09-29T10:14:47.733Z,49.80
2018-09-29T10:17:16.417Z,49.90
2018-09-29T10:19:45.066Z,49.80
2018-09-29T10:22:13.734Z,49.80
2018-09-29T10:24:42.401Z,49.90
2018-09-29T10:27:11.069Z,49.90
2018-09-29T10:29:39.761Z,50.00
2018-09-29T10:32:08.423Z,50.00
2018-09-29T10:34:37.092Z,50.00
2018-09-29T10:37:05.901Z,50.00
2018-09-29T10:39:34.560Z,50.00
2018-09-29T10:42:03.208Z,50.10
2018-09-29T10:44:31.859Z,50.10
2018-09-29T10:47:00.484Z,50.20
2018-09-29T10:49:29.163Z,50.20
2018-09-29T10:51:57.881Z,50.20
2018-09-29T10:54:26.533Z,50.20
2018-09-29T10:56:55.168Z,50.20
2018-09-29T10:59:23.828Z,50.20
2018-09-29T11:01:52.464Z,50.10
2018-09-29T11:04:21.093Z,50.30
2018-09-29T11:06:49.739Z,50.20
2018-09-29T11:09:18.405Z,50.20
2018-09-29T11:11:47.059Z,50.20
2018-09-29T11:14:15.898Z,50.30
2018-09-29T11:16:44.526Z,50.30
2018-09-29T11:19:13.172Z,50.10
2018-09-29T11:21:41.816Z,50.10
2018-09-29T11:24:10.465Z,50.10
2018-09-29T11:26:39.100Z,50.10
2018-09-29T11:29:07.763Z,50.20
2018-09-29T11:31:36.400Z,50.30
2018-09-29T11:34:05.050Z,50.40
2018-09-29T11:36:33.688Z,50.40
2018-09-29T11:39:02.361Z,50.40
2018-09-29T11:41:30.998Z,50.40
2018-09-29T11:43:59.705Z,50.30
2018-09-29T11:46:28.360Z,50.40
2018-09-29T11:48:57.026Z,50.30
2018-09-29T11:51:25.688Z,50.30
2018-09-29T11:53:54.358Z,50.30
2018-09-29T11:56:23.037Z,50.30
2018-09-29T11:58:51.667Z,50.40
2018-09-29T12:01:20.308Z,50.40
2018-09-29T12:03:48.950Z,50.30
2018-09-29T12:06:17.820Z,50.20
2018-09-29T12:08:46.497Z,50.20
2018-09-29T12:11:15.138Z,50.20
2018-09-29T12:13:44.248Z,50.20
2018-09-29T12:16:12.847Z,50.30
2018-09-29T12:18:41.486Z,50.30
2018-09-29T12:21:10.187Z,50.40
2018-09-29T12:23:38.850Z,50.50
2018-09-29T12:26:07.484Z,50.60
2018-09-29T12:28:36.125Z,50.50
2018-09-29T12:31:04.761Z,50.60
2018-09-29T12:33:33.396Z,50.60
2018-09-29T12:36:02.042Z,50.50
2018-09-29T12:38:30.737Z,50.60
2018-09-29T12:40:59.384Z,50.60
2018-09-29T12:43:28.036Z,50.50
2018-09-29T12:45:56.708Z,50.50
2018-09-29T12:48:25.352Z,50.60
2018-09-29T12:50:53.998Z,50.60
2018-09-29T12:53:22.660Z,50.60
2018-09-29T12:55:51.312Z,50.60
2018-09-29T12:58:19.953Z,50.60
2018-09-29T13:00:48.584Z,50.60
2018-09-29T13:03:17.236Z,50.60
2018-09-29T13:05:45.907Z,50.70
2018-09-29T13:08:14.593Z,50.70
2018-09-29T13:10:43.249Z,50.70
2018-09-29T13:13:11.888Z,50.70
2018-09-29T13:15:40.537Z,50.90
2018-09-29T13:18:09.201Z,50.80
2018-09-29T13:20:37.896Z,50.80
2018-09-29T13:23:06.779Z,50.90
2018-09-29T13:25:35.424Z,50.80
2018-09-29T13:28:04.069Z,50.80
2018-09-29T13:30:32.833Z,50.90
2018-09-29T13:33:01.487Z,50.90
2018-09-29T13:35:30.189Z,50.90
2018-09-29T13:37:58.870Z,50.90
2018-09-29T13:40:27.539Z,50.90
2018-09-29T13:42:56.180Z,51.00
2018-09-29T13:45:24.816Z,51.10
2018-09-29T13:47:53.477Z,51.10
2018-09-29T13:50:22.125Z,51.20
2018-09-29T13:52:50.765Z,51.10
2018-09-29T13:55:19.405Z,51.30
2018-09-29T13:57:48.052Z,51.10
2018-09-29T14:00:16.705Z,51.20
2018-09-29T14:02:45.397Z,51.20
2018-09-29T14:05:14.089Z,51.10
2018-09-29T14:07:42.741Z,51.10
2018-09-29T14:10:11.367Z,51.20
2018-09-29T14:12:40.013Z,51.20
2018-09-29T14:15:08.989Z,51.10
2018-09-29T14:17:37.848Z,51.10
2018-09-29T14:20:07.320Z,51.00
2018-09-29T14:22:35.961Z,51.00
2018-09-29T14:25:04.853Z,51.00
2018-09-29T14:27:33.508Z,51.00
2018-09-29T14:30:02.211Z,51.00
2018-09-29T14:32:30.820Z,51.00
2018-09-29T14:34:59.466Z,51.10
2018-09-29T14:37:28.107Z,51.10
2018-09-29T14:39:56.742Z,51.20
2018-09-29T14:42:25.405Z,51.10
2018-09-29T14:44:54.100Z,51.20
2018-09-29T14:47:22.772Z,51.20
2018-09-29T14:49:51.412Z,51.30
2018-09-29T14:52:20.115Z,51.30
2018-09-29T14:54:48.712Z,51.40
2018-09-29T14:57:17.380Z,51.40
2018-09-29T14:59:46.069Z,51.40
2018-09-29T15:02:14.723Z,51.50
2018-09-29T15:04:43.357Z,51.50
2018-09-29T15:07:12.165Z,51.40
2018-09-29T15:09:40.849Z,51.30
2018-09-29T15:12:09.904Z,51.40
2018-09-29T15:14:38.568Z,51.30
2018-09-29T15:17:07.236Z,51.40
2018-09-29T15:19:35.897Z,51.40
2018-09-29T15:22:04.558Z,51.50
2018-09-29T15:24:33.415Z,51.60
2018-09-29T15:27:02.085Z,51.60
2018-09-29T15:29:30.721Z,51.70
2018-09-29T15:31:59.674Z,51.80
2018-09-29T15:34:28.325Z,51.80
2018-09-29T15:36:57.112Z,51.80
2018-09-29T15:39:25.726Z,51.90
2018-09-29T15:41:54.376Z,51.90
2018-09-29T15:44:23.044Z,51.90
2018-09-29T15:46:51.704Z,52.00
2018-09-29T15:49:20.370Z,52.10
2018-09-29T15:51:49.028Z,52.10
2018-09-29T15:54:17.676Z,52.10
2018-09-29T15:56:46.315Z,52.10
2018-09-29T15:59:14.951Z,52.10
2018-09-29T16:01:43.617Z,52.10
2018-09-29T16:04:12.252Z,52.10
2018-09-29T16:06:40.912Z,52.10
2018-09-29T16:09:10.532Z,52.20
2018-09-29T16:11:40.149Z,52.20
2018-09-29T16:14:08.848Z,52.10
2018-09-29T16:16:37.825Z,52.20
2018-09-29T16:19:06.817Z,52.20
2018-09-29T16:21:35.456Z,52.20
2018-09-29T16:24:04.294Z,52.30
2018-09-29T16:26:32.965Z,52.30
2018-09-29T16:29:01.855Z,52.40
2018-09-29T16:31:30.505Z,52.40
2018-09-29T16:33:59.144Z,52.30
2018-09-29T16:36:27.796Z,52.30
2018-09-29T16:38:56.432Z,52.30
2018-09-29T16:41:25.119Z,52.40
2018-09-29T16:43:53.764Z,52.30
2018-09-29T16:46:22.448Z,52.40
2018-09-29T16:48:51.108Z,52.40
2018-09-29T16:51:19.744Z,52.50
2018-09-29T16:53:48.424Z,52.50
2018-09-29T16:56:17.111Z,52.50
2018-09-29T16:58:45.767Z,52.50
2018-09-29T17:01:14.407Z,52.50
2018-09-29T17:03:43.131Z,52.50
2018-09-29T17:06:11.773Z,53.20
2018-09-29T17:08:40.432Z,52.60
2018-09-29T17:11:09.083Z,52.70
2018-09-29T17:13:37.736Z,52.60
2018-09-29T17:16:07.072Z,52.70
2018-09-29T17:18:35.876Z,52.70
2018-09-29T17:21:04.840Z,52.80
2018-09-29T17:23:33.916Z,52.80
2018-09-29T17:26:02.644Z,52.80
2018-09-29T17:28:31.317Z,52.80
2018-09-29T17:31:00.224Z,52.80
2018-09-29T17:33:28.933Z,52.90
2018-09-29T17:35:57.588Z,52.90
2018-09-29T17:38:26.241Z,53.50
2018-09-29T17:40:54.880Z,52.90
2018-09-29T17:43:23.522Z,53.00
2018-09-29T17:45:52.227Z,52.90
2018-09-29T17:48:20.887Z,52.90
2018-09-29T17:50:49.550Z,53.00
2018-09-29T17:53:18.209Z,52.90
2018-09-29T17:55:46.900Z,53.50
2018-09-29T17:58:15.559Z,53.00
2018-09-29T18:00:44.205Z,53.00
2018-09-29T18:03:12.873Z,53.00
2018-09-29T18:05:41.545Z,53.00
2018-09-29T18:08:10.201Z,53.00
2018-09-29T18:10:38.856Z,53.00
2018-09-29T18:13:07.501Z,53.00
2018-09-29T18:15:36.169Z,53.00
2018-09-29T18:18:04.992Z,53.00
2018-09-29T18:20:33.928Z,53.00
2018-09-29T18:23:02.568Z,53.00
2018-09-29T18:25:31.236Z,53.00
2018-09-29T18:28:00.321Z,53.10
2018-09-29T18:30:29.145Z,53.00
2018-09-29T18:32:57.873Z,53.10
2018-09-29T18:35:26.535Z,53.00
2018-09-29T18:37:55.181Z,53.10
2018-09-29T18:40:23.833Z,53.00
2018-09-29T18:42:52.496Z,53.10
2018-09-29T18:45:21.172Z,53.10
2018-09-29T18:47:49.871Z,53.10
2018-09-29T18:50:18.540Z,53.10
2018-09-29T18:52:47.192Z,53.10
2018-09-29T18:55:15.853Z,53.00
2018-09-29T18:57:44.577Z,53.10
2018-09-29T19:00:13.225Z,53.10
2018-09-29T19:02:41.886Z,53.20
2018-09-29T19:05:10.520Z,53.10
2018-09-29T19:07:39.169Z,53.20
2018-09-29T19:10:07.821Z,53.80
2018-09-29T19:12:36.477Z,53.20
2018-09-29T19:15:05.173Z,53.20
2018-09-29T19:17:34.166Z,53.30
2018-09-29T19:20:02.811Z,53.30
2018-09-29T19:22:31.475Z,53.30
2018-09-29T19:25:00.167Z,53.20
2018-09-29T19:27:29.050Z,53.20
2018-09-29T19:29:57.701Z,53.20
2018-09-29T19:32:26.426Z,53.20
2018-09-29T19:34:55.093Z,53.20
2018-09-29T19:37:23.784Z,53.20
2018-09-29T19:39:52.436Z,53.20
2018-09-29T19:42:21.125Z,53.20
2018-09-29T19:44:49.782Z,53.20
2018-09-29T19:47:18.422Z,53.20
2018-09-29T19:49:47.092Z,53.30
2018-09-29T19:52:15.748Z,53.10
2018-09-29T19:54:44.629Z,53.00
2018-09-29T19:57:13.270Z,53.00
2018-09-29T19:59:41.908Z,53.10
2018-09-29T20:02:10.544Z,53.10
2018-09-29T20:04:39.214Z,53.10
2018-09-29T20:07:07.861Z,53.10
2018-09-29T20:09:36.500Z,53.10
2018-09-29T20:12:05.162Z,53.20
2018-09-29T20:14:33.825Z,53.10
2018-09-29T20:17:02.503Z,53.10
2018-09-29T20:19:31.136Z,53.00
2018-09-29T20:21:59.833Z,53.10
2018-09-29T20:24:28.508Z,53.10
2018-09-29T20:26:57.164Z,53.00
2018-09-29T20:29:25.841Z,53.10
2018-09-29T20:31:54.488Z,53.00
2018-09-29T20:34:23.116Z,53.10
2018-09-29T20:36:51.752Z,53.10
2018-09-29T20:39:20.381Z,53.10
2018-09-29T20:41:49.025Z,53.00
2018-09-29T20:44:17.657Z,53.10
2018-09-29T20:46:46.301Z,52.90
2018-09-29T20:49:15.014Z,52.90
2018-09-29T20:51:43.634Z,52.90
2018-09-29T20:54:12.309Z,52.90
2018-09-29T20:56:40.972Z,53.00
2018-09-29T20:59:09.608Z,53.00
2018-09-29T21:01:38.312Z,53.00
2018-09-29T21:04:07.329Z,53.00
2018-09-29T21:06:35.992Z,52.90
2018-09-29T21:09:06.093Z,52.90
2018-09-29T21:11:34.952Z,53.10
2018-09-29T21:14:03.611Z,53.00
2018-09-29T21:16:32.262Z,53.00
2018-09-29T21:19:00.929Z,52.90
2018-09-29T21:21:29.600Z,52.80
2018-09-29T21:23:58.263Z,52.90
2018-09-29T21:26:26.908Z,52.80
2018-09-29T21:28:55.562Z,52.90
2018-09-29T21:31:24.216Z,52.90
2018-09-29T21:33:52.856Z,52.90
2018-09-29T21:36:21.511Z,52.90
2018-09-29T21:38:50.216Z,52.90
2018-09-29T21:41:18.876Z,52.90
2018-09-29T21:43:47.520Z,52.90
2018-09-29T21:46:16.160Z,52.90
2018-09-29T21:48:44.830Z,52.90
2018-09-29T21:51:13.479Z,52.90
2018-09-29T21:53:42.124Z,53.00
2018-09-29T21:56:10.790Z,53.00
2018-09-29T21:58:39.448Z,52.90
2018-09-29T22:01:13.279Z,52.80
2018-09-29T22:03:41.975Z,52.80
2018-09-29T22:06:10.614Z,52.80
2018-09-29T22:08:39.257Z,52.80
2018-09-29T22:11:08.135Z,52.90
2018-09-29T22:13:36.773Z,52.90
2018-09-29T22:16:05.417Z,52.80
2018-09-29T22:18:34.089Z,52.80
2018-09-29T22:21:02.766Z,52.90
2018-09-29T22:23:31.408Z,52.90
2018-09-29T22:26:00.072Z,52.90
2018-09-29T22:28:28.712Z,52.80
2018-09-29T22:30:57.343Z,52.80
2018-09-29T22:33:25.992Z,52.90
2018-09-29T22:35:54.670Z,52.70
2018-09-29T22:38:23.336Z,52.70
2018-09-29T22:40:51.998Z,52.80
2018-09-29T22:43:20.642Z,52.70
2018-09-29T22:45:49.368Z,52.80
2018-09-29T22:48:18.022Z,52.70
2018-09-29T22:50:46.663Z,52.80
2018-09-29T22:53:15.305Z,52.70
2018-09-29T22:55:43.951Z,52.70
2018-09-29T22:58:12.639Z,52.70
2018-09-29T23:00:41.279Z,52.60
2018-09-29T23:03:09.960Z,52.70
2018-09-29T23:05:38.601Z,52.60
2018-09-29T23:08:07.715Z,52.60
2018-09-29T23:10:36.573Z,52.70
2018-09-29T23:13:05.237Z,52.60
2018-09-29T23:15:33.916Z,52.60
2018-09-29T23:18:02.584Z,52.70
2018-09-29T23:20:31.227Z,52.70
2018-09-29T23:22:59.890Z,52.60
2018-09-29T23:25:28.581Z,52.60
2018-09-29T23:27:57.245Z,52.60
2018-09-29T23:30:26.056Z,52.60
2018-09-29T23:32:54.697Z,52.60
2018-09-29T23:35:23.342Z,52.60
2018-09-29T23:37:52.380Z,52.60
2018-09-29T23:40:21.021Z,52.60
2018-09-29T23:42:49.665Z,52.60
2018-09-29T23:45:18.353Z,52.50
2018-09-29T23:47:47.028Z,52.50
2018-09-29T23:50:15.689Z,52.50
2018-09-29T23:52:44.340Z,52.60
2018-09-29T23:55:12.996Z,52.50
2018-09-29T23:57:41.669Z,52.60
